Joyce Hale — WDB9906 — position and weather

sailwx.info

Track history (hours):
 
Tides and Currents Weather Stations Pressure Air Temp Water Temp Dewpoint Dewpoint Depression Visibility Wind Speed Wind Dir Waves Ship Positions

Joyce Hale

Owner: American River Transportation Company, St Louis, MO. More information available from US FCC via Universal Licensing System and Coast Guard Vessel Documentation Center.

Last reported at 2017-Sep-18 19:44 UTC. Time now 2017-Sep-20 22:07 UTC.
Position N 31°59' W 091°08'.

Length 49 m; draft 3 m.

Type: Ship (hazmat cat B). MMSI: 366984910.

Date/timePositionNaut miles runAvg speedWind from/ knotsBaromVisibWave heightAir tempDewpointWater temp
2017-Sep-18 19:44N 31°59' W 091°08'2 7.5
2017-Sep-18 19:30N 31°60' W 091°06'4 6.6
2017-Sep-18 18:51N 32°03' W 091°03'3 7.0
2017-Sep-18 18:28N 32°06' W 091°05'2 4.9
2017-Sep-18 18:00N 32°08' W 091°06'2 4.5
2017-Sep-18 17:27N 32°08' W 091°03'3 6.3
2017-Sep-18 17:00N 32°08' W 091°00'4 7.6
2017-Sep-18 16:30N 32°12' W 090°59'4 7.3
2017-Sep-18 16:00N 32°16' W 090°58'4 7.3
2017-Sep-18 15:30N 32°18' W 090°55'2 4.4
2017-Sep-18 15:00N 32°20' W 090°54'2 5.0
2017-Sep-18 14:30N 32°21' W 090°57'3 6.1
2017-Sep-18 14:00N 32°22' W 091°00'3 6.7
2017-Sep-18 13:30N 32°25' W 091°00'4 7.3
2017-Sep-18 13:00N 32°27' W 091°04'3 7.0
2017-Sep-18 12:30N 32°29' W 091°07'4 7.6
2017-Sep-18 12:00N 32°33' W 091°06'4 7.3
2017-Sep-18 11:28N 32°36' W 091°09'4 7.0
2017-Sep-18 10:54N 32°40' W 091°08'5 2.6
2017-Sep-18 09:04N 32°45' W 091°09'1 6.2
2017-Sep-18 08:57N 32°45' W 091°09'  
2017-Sep-12 10:23N 38°55' W 090°17'2 4.1
2017-Sep-12 09:59N 38°56' W 090°19'2 4.0
2017-Sep-12 09:30N 38°57' W 090°21'2 3.1
2017-Sep-12 09:00N 38°57' W 090°23'2 3.3
2017-Sep-12 08:30N 38°58' W 090°25'2 4.5
2017-Sep-12 08:00N 38°57' W 090°28'2 4.7
2017-Sep-12 07:30N 38°55' W 090°30'  
Track history (hours):
 
Tides and Currents Weather Stations Pressure Air Temp Water Temp Dewpoint Dewpoint Depression Visibility Wind Speed Wind Dir Waves Ship Positions

Joyce Hale

Owner: American River Transportation Company, St Louis, MO. More information available from US FCC via Universal Licensing System and Coast Guard Vessel Documentation Center.

Last reported at 2017-Sep-18 19:44 UTC. Time now 2017-Sep-20 22:07 UTC.
Position N 31°59' W 091°08'.

Length 49 m; draft 3 m.

Type: Ship (hazmat cat B). MMSI: 366984910.

Date/timePositionNaut miles runAvg speedWind from/ knotsBaromVisibWave heightAir tempDewpointWater temp
2017-Sep-18 19:44N 31°59' W 091°08'2 7.5
2017-Sep-18 19:30N 31°60' W 091°06'4 6.6
2017-Sep-18 18:51N 32°03' W 091°03'3 7.0
2017-Sep-18 18:28N 32°06' W 091°05'2 4.9
2017-Sep-18 18:00N 32°08' W 091°06'2 4.5
2017-Sep-18 17:27N 32°08' W 091°03'3 6.3
2017-Sep-18 17:00N 32°08' W 091°00'4 7.6
2017-Sep-18 16:30N 32°12' W 090°59'4 7.3
2017-Sep-18 16:00N 32°16' W 090°58'4 7.3
2017-Sep-18 15:30N 32°18' W 090°55'2 4.4
2017-Sep-18 15:00N 32°20' W 090°54'2 5.0
2017-Sep-18 14:30N 32°21' W 090°57'3 6.1
2017-Sep-18 14:00N 32°22' W 091°00'3 6.7
2017-Sep-18 13:30N 32°25' W 091°00'4 7.3
2017-Sep-18 13:00N 32°27' W 091°04'3 7.0
2017-Sep-18 12:30N 32°29' W 091°07'4 7.6
2017-Sep-18 12:00N 32°33' W 091°06'4 7.3
2017-Sep-18 11:28N 32°36' W 091°09'4 7.0
2017-Sep-18 10:54N 32°40' W 091°08'5 2.6
2017-Sep-18 09:04N 32°45' W 091°09'1 6.2
2017-Sep-18 08:57N 32°45' W 091°09'  
2017-Sep-12 10:23N 38°55' W 090°17'2 4.1
2017-Sep-12 09:59N 38°56' W 090°19'2 4.0
2017-Sep-12 09:30N 38°57' W 090°21'2 3.1
2017-Sep-12 09:00N 38°57' W 090°23'2 3.3
2017-Sep-12 08:30N 38°58' W 090°25'2 4.5
2017-Sep-12 08:00N 38°57' W 090°28'2 4.7
2017-Sep-12 07:30N 38°55' W 090°30'  

Dump ship's entire track history